sensor_id;sensor_type;location;lat;lon;timestamp;P1;durP1;ratioP1;P2;durP2;ratioP2
819;SDS011;392;48.838;2.322;2024-01-15T00:00:32;20.27;;;17.02;;
819;SDS011;392;48.838;2.322;2024-01-15T00:02:59;20.90;;;18.15;;
819;SDS011;392;48.838;2.322;2024-01-15T00:05:27;18.70;;;16.52;;
819;SDS011;392;48.838;2.322;2024-01-15T00:07:54;20.92;;;18.48;;
819;SDS011;392;48.838;2.322;2024-01-15T00:10:21;19.77;;;17.67;;
819;SDS011;392;48.838;2.322;2024-01-15T00:12:49;20.80;;;18.65;;
819;SDS011;392;48.838;2.322;2024-01-15T00:15:16;19.48;;;17.38;;
819;SDS011;392;48.838;2.322;2024-01-15T00:17:45;20.08;;;17.45;;
819;SDS011;392;48.838;2.322;2024-01-15T00:20:13;19.10;;;17.00;;
819;SDS011;392;48.838;2.322;2024-01-15T00:22:40;19.33;;;17.15;;
819;SDS011;392;48.838;2.322;2024-01-15T00:25:07;19.00;;;16.70;;
819;SDS011;392;48.838;2.322;2024-01-15T00:27:35;18.40;;;16.40;;
819;SDS011;392;48.838;2.322;2024-01-15T00:30:03;19.48;;;17.00;;
819;SDS011;392;48.838;2.322;2024-01-15T00:32:32;17.92;;;16.10;;
819;SDS011;392;48.838;2.322;2024-01-15T00:35:00;19.75;;;17.67;;
819;SDS011;392;48.838;2.322;2024-01-15T00:37:28;18.60;;;15.82;;
819;SDS011;392;48.838;2.322;2024-01-15T00:39:55;19.98;;;17.10;;
819;SDS011;392;48.838;2.322;2024-01-15T00:42:23;18.25;;;16.40;;
819;SDS011;392;48.838;2.322;2024-01-15T00:44:51;20.10;;;17.38;;
819;SDS011;392;48.838;2.322;2024-01-15T00:47:19;17.90;;;15.65;;
819;SDS011;392;48.838;2.322;2024-01-15T00:49:46;19.15;;;16.65;;
819;SDS011;392;48.838;2.322;2024-01-15T00:52:15;18.33;;;16.42;;
819;SDS011;392;48.838;2.322;2024-01-15T00:54:41;18.83;;;15.68;;
819;SDS011;392;48.838;2.322;2024-01-15T00:57:08;19.05;;;16.75;;
819;SDS011;392;48.838;2.322;2024-01-15T00:59:36;19.02;;;15.85;;
819;SDS011;392;48.838;2.322;2024-01-15T01:02:03;24.83;;;16.27;;
819;SDS011;392;48.838;2.322;2024-01-15T01:04:30;19.35;;;17.02;;
819;SDS011;392;48.838;2.322;2024-01-15T01:06:58;17.65;;;15.73;;
819;SDS011;392;48.838;2.322;2024-01-15T01:09:26;18.83;;;16.55;;
819;SDS011;392;48.838;2.322;2024-01-15T01:11:55;18.60;;;16.42;;
819;SDS011;392;48.838;2.322;2024-01-15T01:14:22;17.90;;;16.00;;
819;SDS011;392;48.838;2.322;2024-01-15T01:16:49;18.80;;;16.80;;
819;SDS011;392;48.838;2.322;2024-01-15T01:19:17;17.77;;;15.85;;
819;SDS011;392;48.838;2.322;2024-01-15T01:21:44;19.20;;;16.30;;
819;SDS011;392;48.838;2.322;2024-01-15T01:24:11;18.67;;;16.70;;
819;SDS011;392;48.838;2.322;2024-01-15T01:26:40;18.75;;;16.38;;
819;SDS011;392;48.838;2.322;2024-01-15T01:29:07;19.13;;;16.88;;
819;SDS011;392;48.838;2.322;2024-01-15T01:31:34;18.88;;;17.00;;
819;SDS011;392;48.838;2.322;2024-01-15T01:34:02;21.20;;;17.00;;
819;SDS011;392;48.838;2.322;2024-01-15T01:36:29;19.80;;;16.38;;
819;SDS011;392;48.838;2.322;2024-01-15T01:38:58;21.40;;;18.02;;
819;SDS011;392;48.838;2.322;2024-01-15T01:41:26;20.63;;;17.08;;
819;SDS011;392;48.838;2.322;2024-01-15T01:43:54;20.95;;;17.42;;
819;SDS011;392;48.838;2.322;2024-01-15T01:46:22;19.08;;;16.35;;
819;SDS011;392;48.838;2.322;2024-01-15T01:48:51;17.73;;;15.38;;
819;SDS011;392;48.838;2.322;2024-01-15T01:51:18;17.60;;;15.70;;
819;SDS011;392;48.838;2.322;2024-01-15T01:53:48;19.08;;;16.30;;
819;SDS011;392;48.838;2.322;2024-01-15T01:56:16;18.08;;;15.23;;
819;SDS011;392;48.838;2.322;2024-01-15T01:58:44;18.30;;;16.00;;
819;SDS011;392;48.838;2.322;2024-01-15T02:01:14;19.08;;;15.95;;
819;SDS011;392;48.838;2.322;2024-01-15T02:03:43;19.70;;;16.65;;
819;SDS011;392;48.838;2.322;2024-01-15T02:06:10;17.45;;;15.45;;
819;SDS011;392;48.838;2.322;2024-01-15T02:08:38;17.52;;;15.70;;
819;SDS011;392;48.838;2.322;2024-01-15T02:11:06;17.45;;;15.65;;
819;SDS011;392;48.838;2.322;2024-01-15T02:13:33;19.00;;;16.67;;
819;SDS011;392;48.838;2.322;2024-01-15T02:16:01;17.73;;;15.80;;
819;SDS011;392;48.838;2.322;2024-01-15T02:18:29;19.85;;;16.30;;
819;SDS011;392;48.838;2.322;2024-01-15T02:21:07;19.80;;;16.10;;
819;SDS011;392;48.838;2.322;2024-01-15T02:23:35;18.00;;;15.73;;
819;SDS011;392;48.838;2.322;2024-01-15T02:26:03;17.83;;;15.93;;
819;SDS011;392;48.838;2.322;2024-01-15T02:28:32;18.58;;;15.35;;
819;SDS011;392;48.838;2.322;2024-01-15T02:31:00;17.60;;;15.25;;
819;SDS011;392;48.838;2.322;2024-01-15T02:33:27;18.48;;;15.82;;
819;SDS011;392;48.838;2.322;2024-01-15T02:35:54;17.83;;;14.73;;
819;SDS011;392;48.838;2.322;2024-01-15T02:38:21;16.88;;;13.88;;
819;SDS011;392;48.838;2.322;2024-01-15T02:40:50;16.38;;;14.65;;
819;SDS011;392;48.838;2.322;2024-01-15T02:43:17;16.25;;;14.35;;
819;SDS011;392;48.838;2.322;2024-01-15T02:45:45;17.13;;;14.38;;
819;SDS011;392;48.838;2.322;2024-01-15T02:48:12;16.30;;;14.13;;
819;SDS011;392;48.838;2.322;2024-01-15T02:50:39;18.40;;;13.90;;
819;SDS011;392;48.838;2.322;2024-01-15T02:53:07;19.50;;;14.00;;
819;SDS011;392;48.838;2.322;2024-01-15T02:55:34;15.07;;;13.48;;
819;SDS011;392;48.838;2.322;2024-01-15T02:58:03;16.77;;;13.90;;
819;SDS011;392;48.838;2.322;2024-01-15T03:00:30;17.35;;;15.20;;
819;SDS011;392;48.838;2.322;2024-01-15T03:02:57;16.33;;;14.63;;
819;SDS011;392;48.838;2.322;2024-01-15T03:05:25;17.58;;;14.85;;
819;SDS011;392;48.838;2.322;2024-01-15T03:07:52;16.98;;;15.27;;
819;SDS011;392;48.838;2.322;2024-01-15T03:10:19;17.17;;;15.18;;
819;SDS011;392;48.838;2.322;2024-01-15T03:12:46;16.10;;;14.40;;
819;SDS011;392;48.838;2.322;2024-01-15T03:15:15;18.83;;;15.40;;
819;SDS011;392;48.838;2.322;2024-01-15T03:17:43;18.08;;;14.95;;
819;SDS011;392;48.838;2.322;2024-01-15T03:20:11;19.33;;;15.20;;
819;SDS011;392;48.838;2.322;2024-01-15T03:22:38;19.70;;;15.40;;
819;SDS011;392;48.838;2.322;2024-01-15T03:25:06;19.10;;;15.30;;
819;SDS011;392;48.838;2.322;2024-01-15T03:27:33;18.05;;;15.30;;
819;SDS011;392;48.838;2.322;2024-01-15T03:30:01;18.45;;;15.45;;
819;SDS011;392;48.838;2.322;2024-01-15T03:32:30;16.63;;;14.75;;
819;SDS011;392;48.838;2.322;2024-01-15T03:34:57;18.02;;;15.40;;
819;SDS011;392;48.838;2.322;2024-01-15T03:37:24;17.65;;;14.90;;
819;SDS011;392;48.838;2.322;2024-01-15T03:39:51;18.58;;;14.50;;
819;SDS011;392;48.838;2.322;2024-01-15T03:42:18;17.27;;;14.63;;
819;SDS011;392;48.838;2.322;2024-01-15T03:44:46;17.50;;;15.02;;
819;SDS011;392;48.838;2.322;2024-01-15T03:47:13;17.00;;;14.75;;
819;SDS011;392;48.838;2.322;2024-01-15T03:49:41;16.08;;;14.40;;
819;SDS011;392;48.838;2.322;2024-01-15T03:52:09;15.38;;;13.77;;
819;SDS011;392;48.838;2.322;2024-01-15T03:54:36;15.07;;;13.48;;
819;SDS011;392;48.838;2.322;2024-01-15T03:57:04;15.73;;;13.25;;
819;SDS011;392;48.838;2.322;2024-01-15T03:59:31;14.55;;;12.73;;
819;SDS011;392;48.838;2.322;2024-01-15T04:01:59;15.77;;;13.60;;
819;SDS011;392;48.838;2.322;2024-01-15T04:04:26;14.98;;;12.45;;
819;SDS011;392;48.838;2.322;2024-01-15T04:06:55;15.00;;;12.82;;
819;SDS011;392;48.838;2.322;2024-01-15T04:09:22;15.32;;;12.88;;
819;SDS011;392;48.838;2.322;2024-01-15T04:11:49;17.65;;;14.05;;
819;SDS011;392;48.838;2.322;2024-01-15T04:14:16;16.13;;;13.88;;
819;SDS011;392;48.838;2.322;2024-01-15T04:16:44;16.23;;;13.07;;
819;SDS011;392;48.838;2.322;2024-01-15T04:19:11;16.00;;;13.65;;
819;SDS011;392;48.838;2.322;2024-01-15T04:21:38;14.68;;;12.85;;
819;SDS011;392;48.838;2.322;2024-01-15T04:24:08;17.60;;;14.15;;
819;SDS011;392;48.838;2.322;2024-01-15T04:26:36;15.10;;;13.15;;
819;SDS011;392;48.838;2.322;2024-01-15T04:29:03;15.40;;;12.63;;
819;SDS011;392;48.838;2.322;2024-01-15T04:31:30;14.73;;;13.00;;
819;SDS011;392;48.838;2.322;2024-01-15T04:33:58;13.52;;;12.13;;
819;SDS011;392;48.838;2.322;2024-01-15T04:36:25;14.10;;;11.60;;
819;SDS011;392;48.838;2.322;2024-01-15T04:38:52;14.00;;;11.70;;
819;SDS011;392;48.838;2.322;2024-01-15T04:41:21;14.57;;;13.05;;
819;SDS011;392;48.838;2.322;2024-01-15T04:43:48;15.38;;;12.77;;
819;SDS011;392;48.838;2.322;2024-01-15T04:46:16;17.38;;;12.93;;
819;SDS011;392;48.838;2.322;2024-01-15T04:48:43;15.25;;;11.90;;
819;SDS011;392;48.838;2.322;2024-01-15T04:51:10;15.15;;;11.88;;
819;SDS011;392;48.838;2.322;2024-01-15T04:53:37;14.10;;;12.35;;
819;SDS011;392;48.838;2.322;2024-01-15T04:56:05;13.57;;;12.10;;
819;SDS011;392;48.838;2.322;2024-01-15T04:58:34;15.45;;;13.27;;
819;SDS011;392;48.838;2.322;2024-01-15T05:01:01;14.68;;;12.95;;
819;SDS011;392;48.838;2.322;2024-01-15T05:03:29;16.00;;;13.02;;
819;SDS011;392;48.838;2.322;2024-01-15T05:05:56;14.38;;;11.75;;
819;SDS011;392;48.838;2.322;2024-01-15T05:08:23;14.37;;;11.63;;
819;SDS011;392;48.838;2.322;2024-01-15T05:10:50;15.50;;;11.35;;
819;SDS011;392;48.838;2.322;2024-01-15T05:13:17;13.40;;;10.75;;
819;SDS011;392;48.838;2.322;2024-01-15T05:15:46;15.30;;;11.20;;
819;SDS011;392;48.838;2.322;2024-01-15T05:18:14;14.27;;;12.20;;
819;SDS011;392;48.838;2.322;2024-01-15T05:20:41;14.20;;;12.25;;
819;SDS011;392;48.838;2.322;2024-01-15T05:23:08;13.93;;;12.20;;
819;SDS011;392;48.838;2.322;2024-01-15T05:25:36;14.30;;;12.52;;
819;SDS011;392;48.838;2.322;2024-01-15T05:28:03;16.80;;;13.85;;
819;SDS011;392;48.838;2.322;2024-01-15T05:30:32;15.18;;;12.70;;
819;SDS011;392;48.838;2.322;2024-01-15T05:33:00;15.07;;;12.82;;
819;SDS011;392;48.838;2.322;2024-01-15T05:35:28;13.70;;;11.80;;
819;SDS011;392;48.838;2.322;2024-01-15T05:37:55;13.40;;;11.13;;
819;SDS011;392;48.838;2.322;2024-01-15T05:40:23;14.38;;;11.38;;
819;SDS011;392;48.838;2.322;2024-01-15T05:42:50;13.45;;;11.57;;
819;SDS011;392;48.838;2.322;2024-01-15T05:45:18;13.73;;;11.90;;
819;SDS011;392;48.838;2.322;2024-01-15T05:47:45;12.20;;;10.65;;
819;SDS011;392;48.838;2.322;2024-01-15T05:50:13;14.45;;;12.15;;
819;SDS011;392;48.838;2.322;2024-01-15T05:52:41;13.27;;;11.02;;
819;SDS011;392;48.838;2.322;2024-01-15T05:55:08;12.98;;;11.57;;
819;SDS011;392;48.838;2.322;2024-01-15T05:57:36;15.05;;;11.75;;
819;SDS011;392;48.838;2.322;2024-01-15T06:00:03;12.65;;;10.95;;
819;SDS011;392;48.838;2.322;2024-01-15T06:02:34;11.90;;;10.50;;
819;SDS011;392;48.838;2.322;2024-01-15T06:05:01;12.10;;;10.80;;
819;SDS011;392;48.838;2.322;2024-01-15T06:07:30;11.23;;;9.32;;
819;SDS011;392;48.838;2.322;2024-01-15T06:09:57;11.73;;;9.98;;
819;SDS011;392;48.838;2.322;2024-01-15T06:12:24;9.60;;;8.60;;
819;SDS011;392;48.838;2.322;2024-01-15T06:14:53;11.00;;;8.82;;
819;SDS011;392;48.838;2.322;2024-01-15T06:17:20;10.48;;;8.88;;
819;SDS011;392;48.838;2.322;2024-01-15T06:19:47;11.07;;;8.88;;
819;SDS011;392;48.838;2.322;2024-01-15T06:22:15;10.20;;;8.13;;
819;SDS011;392;48.838;2.322;2024-01-15T06:24:43;11.00;;;9.02;;
819;SDS011;392;48.838;2.322;2024-01-15T06:27:11;10.70;;;8.45;;
819;SDS011;392;48.838;2.322;2024-01-15T06:29:38;11.05;;;8.80;;
819;SDS011;392;48.838;2.322;2024-01-15T06:32:05;9.82;;;8.77;;
819;SDS011;392;48.838;2.322;2024-01-15T06:34:33;11.90;;;9.50;;
819;SDS011;392;48.838;2.322;2024-01-15T06:37:00;12.47;;;9.70;;
819;SDS011;392;48.838;2.322;2024-01-15T06:39:27;12.10;;;10.20;;
819;SDS011;392;48.838;2.322;2024-01-15T06:41:56;13.50;;;10.30;;
819;SDS011;392;48.838;2.322;2024-01-15T06:44:23;10.85;;;9.70;;
819;SDS011;392;48.838;2.322;2024-01-15T06:46:50;12.07;;;9.83;;
819;SDS011;392;48.838;2.322;2024-01-15T06:49:22;12.00;;;9.93;;
819;SDS011;392;48.838;2.322;2024-01-15T06:51:50;13.38;;;10.38;;
819;SDS011;392;48.838;2.322;2024-01-15T06:54:17;12.57;;;10.68;;
819;SDS011;392;48.838;2.322;2024-01-15T06:56:44;15.10;;;11.35;;
819;SDS011;392;48.838;2.322;2024-01-15T06:59:13;11.20;;;9.90;;
819;SDS011;392;48.838;2.322;2024-01-15T07:01:40;14.43;;;12.20;;
819;SDS011;392;48.838;2.322;2024-01-15T07:04:08;15.30;;;12.07;;
819;SDS011;392;48.838;2.322;2024-01-15T07:06:35;11.33;;;9.23;;
819;SDS011;392;48.838;2.322;2024-01-15T07:09:02;12.90;;;10.20;;
819;SDS011;392;48.838;2.322;2024-01-15T07:11:30;12.05;;;10.05;;
819;SDS011;392;48.838;2.322;2024-01-15T07:13:57;11.43;;;9.55;;
819;SDS011;392;48.838;2.322;2024-01-15T07:16:26;14.00;;;10.07;;
819;SDS011;392;48.838;2.322;2024-01-15T07:18:53;12.57;;;10.67;;
819;SDS011;392;48.838;2.322;2024-01-15T07:21:20;13.38;;;10.32;;
819;SDS011;392;48.838;2.322;2024-01-15T07:23:48;15.70;;;11.45;;
819;SDS011;392;48.838;2.322;2024-01-15T07:26:15;15.18;;;11.50;;
819;SDS011;392;48.838;2.322;2024-01-15T07:28:42;13.70;;;11.70;;
819;SDS011;392;48.838;2.322;2024-01-15T07:31:10;13.15;;;11.20;;
819;SDS011;392;48.838;2.322;2024-01-15T07:33:38;15.43;;;11.57;;
819;SDS011;392;48.838;2.322;2024-01-15T07:36:05;12.57;;;10.85;;
819;SDS011;392;48.838;2.322;2024-01-15T07:38:33;14.32;;;11.65;;
819;SDS011;392;48.838;2.322;2024-01-15T07:41:00;12.33;;;10.93;;
819;SDS011;392;48.838;2.322;2024-01-15T07:43:28;11.70;;;10.03;;
819;SDS011;392;48.838;2.322;2024-01-15T07:45:55;17.08;;;11.73;;
819;SDS011;392;48.838;2.322;2024-01-15T07:48:22;14.37;;;11.30;;
819;SDS011;392;48.838;2.322;2024-01-15T07:50:51;13.27;;;11.73;;
819;SDS011;392;48.838;2.322;2024-01-15T07:53:18;12.90;;;11.30;;
819;SDS011;392;48.838;2.322;2024-01-15T07:55:46;14.00;;;12.38;;
819;SDS011;392;48.838;2.322;2024-01-15T07:58:13;15.60;;;12.00;;
819;SDS011;392;48.838;2.322;2024-01-15T08:00:40;14.20;;;11.90;;
819;SDS011;392;48.838;2.322;2024-01-15T08:03:08;14.15;;;10.80;;
819;SDS011;392;48.838;2.322;2024-01-15T08:05:35;16.20;;;12.87;;
819;SDS011;392;48.838;2.322;2024-01-15T08:08:07;16.30;;;11.98;;
819;SDS011;392;48.838;2.322;2024-01-15T08:10:34;15.03;;;11.30;;
819;SDS011;392;48.838;2.322;2024-01-15T08:13:01;16.20;;;12.27;;
819;SDS011;392;48.838;2.322;2024-01-15T08:15:28;12.52;;;10.80;;
819;SDS011;392;48.838;2.322;2024-01-15T08:17:56;13.80;;;11.77;;
819;SDS011;392;48.838;2.322;2024-01-15T08:20:23;17.60;;;11.97;;
819;SDS011;392;48.838;2.322;2024-01-15T08:22:50;14.63;;;11.83;;
819;SDS011;392;48.838;2.322;2024-01-15T08:25:19;12.55;;;10.32;;
819;SDS011;392;48.838;2.322;2024-01-15T08:27:46;14.18;;;11.85;;
819;SDS011;392;48.838;2.322;2024-01-15T08:30:14;14.02;;;11.25;;
819;SDS011;392;48.838;2.322;2024-01-15T08:32:45;14.30;;;11.80;;
819;SDS011;392;48.838;2.322;2024-01-15T08:35:13;13.63;;;11.60;;
819;SDS011;392;48.838;2.322;2024-01-15T08:37:43;14.90;;;11.18;;
819;SDS011;392;48.838;2.322;2024-01-15T08:40:10;14.95;;;11.10;;
819;SDS011;392;48.838;2.322;2024-01-15T08:42:40;13.90;;;11.38;;
819;SDS011;392;48.838;2.322;2024-01-15T08:45:07;16.10;;;12.23;;
819;SDS011;392;48.838;2.322;2024-01-15T08:47:35;13.60;;;10.67;;
819;SDS011;392;48.838;2.322;2024-01-15T08:50:03;14.57;;;11.00;;
819;SDS011;392;48.838;2.322;2024-01-15T08:52:35;14.77;;;11.57;;
819;SDS011;392;48.838;2.322;2024-01-15T08:55:02;13.70;;;11.00;;
819;SDS011;392;48.838;2.322;2024-01-15T08:57:32;13.23;;;10.40;;
819;SDS011;392;48.838;2.322;2024-01-15T09:00:01;13.97;;;10.70;;
819;SDS011;392;48.838;2.322;2024-01-15T09:02:33;12.90;;;11.23;;
819;SDS011;392;48.838;2.322;2024-01-15T09:05:01;13.30;;;10.63;;
819;SDS011;392;48.838;2.322;2024-01-15T09:07:29;11.70;;;10.50;;
819;SDS011;392;48.838;2.322;2024-01-15T09:09:57;11.60;;;10.30;;
819;SDS011;392;48.838;2.322;2024-01-15T09:12:25;11.97;;;9.97;;
819;SDS011;392;48.838;2.322;2024-01-15T09:14:52;13.70;;;9.53;;
819;SDS011;392;48.838;2.322;2024-01-15T09:17:21;11.63;;;9.30;;
819;SDS011;392;48.838;2.322;2024-01-15T09:19:49;11.15;;;9.35;;
819;SDS011;392;48.838;2.322;2024-01-15T09:22:16;11.83;;;10.53;;
819;SDS011;392;48.838;2.322;2024-01-15T09:24:44;11.00;;;9.70;;
819;SDS011;392;48.838;2.322;2024-01-15T09:27:11;11.47;;;9.27;;
819;SDS011;392;48.838;2.322;2024-01-15T09:29:38;13.43;;;9.47;;
819;SDS011;392;48.838;2.322;2024-01-15T09:32:07;11.30;;;9.27;;
819;SDS011;392;48.838;2.322;2024-01-15T09:34:36;10.10;;;8.83;;
819;SDS011;392;48.838;2.322;2024-01-15T09:37:04;9.63;;;8.63;;
819;SDS011;392;48.838;2.322;2024-01-15T09:39:31;10.97;;;8.90;;
819;SDS011;392;48.838;2.322;2024-01-15T09:41:58;9.17;;;8.23;;
819;SDS011;392;48.838;2.322;2024-01-15T09:44:26;10.43;;;9.33;;
819;SDS011;392;48.838;2.322;2024-01-15T09:46:55;9.53;;;8.13;;
819;SDS011;392;48.838;2.322;2024-01-15T09:49:23;10.60;;;8.90;;
819;SDS011;392;48.838;2.322;2024-01-15T09:51:52;9.30;;;8.40;;
819;SDS011;392;48.838;2.322;2024-01-15T09:54:21;11.33;;;8.93;;
819;SDS011;392;48.838;2.322;2024-01-15T09:56:49;9.63;;;8.63;;
819;SDS011;392;48.838;2.322;2024-01-15T09:59:17;9.57;;;8.67;;
819;SDS011;392;48.838;2.322;2024-01-15T10:01:45;10.23;;;9.00;;
819;SDS011;392;48.838;2.322;2024-01-15T10:04:14;10.33;;;8.60;;
819;SDS011;392;48.838;2.322;2024-01-15T10:06:43;10.03;;;7.93;;
819;SDS011;392;48.838;2.322;2024-01-15T10:09:14;9.10;;;7.77;;
819;SDS011;392;48.838;2.322;2024-01-15T10:11:41;8.20;;;7.23;;
819;SDS011;392;48.838;2.322;2024-01-15T10:14:09;7.70;;;6.57;;
819;SDS011;392;48.838;2.322;2024-01-15T10:16:37;9.30;;;7.87;;
819;SDS011;392;48.838;2.322;2024-01-15T10:19:05;7.53;;;6.63;;
819;SDS011;392;48.838;2.322;2024-01-15T10:21:38;5.93;;;5.33;;
819;SDS011;392;48.838;2.322;2024-01-15T10:24:11;7.20;;;6.50;;
819;SDS011;392;48.838;2.322;2024-01-15T10:26:40;7.77;;;6.63;;
819;SDS011;392;48.838;2.322;2024-01-15T10:29:07;6.67;;;6.07;;
819;SDS011;392;48.838;2.322;2024-01-15T10:31:36;7.30;;;6.27;;
819;SDS011;392;48.838;2.322;2024-01-15T10:34:10;6.17;;;5.40;;
819;SDS011;392;48.838;2.322;2024-01-15T10:36:40;5.57;;;5.07;;
819;SDS011;392;48.838;2.322;2024-01-15T10:39:08;5.67;;;4.80;;
819;SDS011;392;48.838;2.322;2024-01-15T10:41:47;5.00;;;4.60;;
819;SDS011;392;48.838;2.322;2024-01-15T10:44:16;5.97;;;5.37;;
819;SDS011;392;48.838;2.322;2024-01-15T10:46:44;5.00;;;4.40;;
819;SDS011;392;48.838;2.322;2024-01-15T10:49:12;4.77;;;4.30;;
819;SDS011;392;48.838;2.322;2024-01-15T10:51:40;5.73;;;4.80;;
819;SDS011;392;48.838;2.322;2024-01-15T10:54:09;4.33;;;3.33;;
819;SDS011;392;48.838;2.322;2024-01-15T10:56:37;3.60;;;3.30;;
819;SDS011;392;48.838;2.322;2024-01-15T10:59:07;4.40;;;3.90;;
819;SDS011;392;48.838;2.322;2024-01-15T11:01:36;4.70;;;3.67;;
819;SDS011;392;48.838;2.322;2024-01-15T11:04:04;3.80;;;3.27;;
819;SDS011;392;48.838;2.322;2024-01-15T11:06:40;3.73;;;3.37;;
819;SDS011;392;48.838;2.322;2024-01-15T11:09:09;4.00;;;3.60;;
819;SDS011;392;48.838;2.322;2024-01-15T11:11:40;3.80;;;3.50;;
819;SDS011;392;48.838;2.322;2024-01-15T11:14:10;4.60;;;4.20;;
819;SDS011;392;48.838;2.322;2024-01-15T11:16:55;5.13;;;4.00;;
819;SDS011;392;48.838;2.322;2024-01-15T11:19:24;5.27;;;4.30;;
819;SDS011;392;48.838;2.322;2024-01-15T11:21:52;2.90;;;2.80;;
819;SDS011;392;48.838;2.322;2024-01-15T11:24:32;2.73;;;2.53;;
819;SDS011;392;48.838;2.322;2024-01-15T11:27:02;3.73;;;2.60;;
819;SDS011;392;48.838;2.322;2024-01-15T11:29:33;3.93;;;3.10;;
819;SDS011;392;48.838;2.322;2024-01-15T11:32:03;2.57;;;2.47;;
819;SDS011;392;48.838;2.322;2024-01-15T11:34:50;3.77;;;3.10;;
819;SDS011;392;48.838;2.322;2024-01-15T11:37:28;3.20;;;3.00;;
819;SDS011;392;48.838;2.322;2024-01-15T11:40:17;2.90;;;2.70;;
819;SDS011;392;48.838;2.322;2024-01-15T11:42:45;6.33;;;5.43;;
819;SDS011;392;48.838;2.322;2024-01-15T11:45:15;3.30;;;3.00;;
819;SDS011;392;48.838;2.322;2024-01-15T11:50:36;2.47;;;2.27;;
819;SDS011;392;48.838;2.322;2024-01-15T11:53:12;2.60;;;2.47;;
819;SDS011;392;48.838;2.322;2024-01-15T11:55:44;3.70;;;3.10;;
819;SDS011;392;48.838;2.322;2024-01-15T11:58:14;2.97;;;2.77;;
819;SDS011;392;48.838;2.322;2024-01-15T12:00:45;2.43;;;2.23;;
819;SDS011;392;48.838;2.322;2024-01-15T12:03:15;4.13;;;2.37;;
819;SDS011;392;48.838;2.322;2024-01-15T12:05:42;2.57;;;2.37;;
819;SDS011;392;48.838;2.322;2024-01-15T12:08:09;2.50;;;2.40;;
819;SDS011;392;48.838;2.322;2024-01-15T12:10:37;2.60;;;2.40;;
819;SDS011;392;48.838;2.322;2024-01-15T12:13:08;2.80;;;2.40;;
819;SDS011;392;48.838;2.322;2024-01-15T12:15:38;2.83;;;2.47;;
819;SDS011;392;48.838;2.322;2024-01-15T12:18:09;3.27;;;2.70;;
819;SDS011;392;48.838;2.322;2024-01-15T12:20:39;2.20;;;1.80;;
819;SDS011;392;48.838;2.322;2024-01-15T12:23:07;2.20;;;2.00;;
819;SDS011;392;48.838;2.322;2024-01-15T12:25:35;3.63;;;2.00;;
819;SDS011;392;48.838;2.322;2024-01-15T12:28:03;2.20;;;2.00;;
819;SDS011;392;48.838;2.322;2024-01-15T12:30:32;2.70;;;1.93;;
819;SDS011;392;48.838;2.322;2024-01-15T12:33:01;1.90;;;1.80;;
819;SDS011;392;48.838;2.322;2024-01-15T12:35:34;1.63;;;1.53;;
819;SDS011;392;48.838;2.322;2024-01-15T12:38:02;1.80;;;1.50;;
819;SDS011;392;48.838;2.322;2024-01-15T12:40:30;2.37;;;1.87;;
819;SDS011;392;48.838;2.322;2024-01-15T12:42:59;2.83;;;2.47;;
819;SDS011;392;48.838;2.322;2024-01-15T12:45:29;2.30;;;2.10;;
819;SDS011;392;48.838;2.322;2024-01-15T12:47:57;2.03;;;1.93;;
819;SDS011;392;48.838;2.322;2024-01-15T12:50:25;4.50;;;3.60;;
819;SDS011;392;48.838;2.322;2024-01-15T12:52:54;2.03;;;1.93;;
819;SDS011;392;48.838;2.322;2024-01-15T12:55:22;1.90;;;1.77;;
819;SDS011;392;48.838;2.322;2024-01-15T12:57:49;3.20;;;2.33;;
819;SDS011;392;48.838;2.322;2024-01-15T13:00:19;2.40;;;1.90;;
819;SDS011;392;48.838;2.322;2024-01-15T13:02:47;2.87;;;2.13;;
819;SDS011;392;48.838;2.322;2024-01-15T13:05:15;1.93;;;1.83;;
819;SDS011;392;48.838;2.322;2024-01-15T13:07:43;2.07;;;1.97;;
819;SDS011;392;48.838;2.322;2024-01-15T13:10:12;2.10;;;2.00;;
819;SDS011;392;48.838;2.322;2024-01-15T13:12:40;2.23;;;1.77;;
819;SDS011;392;48.838;2.322;2024-01-15T13:15:07;1.93;;;1.83;;
819;SDS011;392;48.838;2.322;2024-01-15T13:17:37;1.40;;;1.30;;
819;SDS011;392;48.838;2.322;2024-01-15T13:20:05;2.07;;;1.73;;
819;SDS011;392;48.838;2.322;2024-01-15T13:22:39;2.00;;;1.80;;
819;SDS011;392;48.838;2.322;2024-01-15T13:25:09;2.73;;;1.80;;
819;SDS011;392;48.838;2.322;2024-01-15T13:27:38;1.90;;;1.80;;
819;SDS011;392;48.838;2.322;2024-01-15T13:30:05;3.30;;;2.00;;
819;SDS011;392;48.838;2.322;2024-01-15T13:32:34;1.30;;;1.20;;
819;SDS011;392;48.838;2.322;2024-01-15T13:35:02;1.40;;;1.30;;
819;SDS011;392;48.838;2.322;2024-01-15T13:37:34;1.60;;;1.50;;
819;SDS011;392;48.838;2.322;2024-01-15T13:40:02;1.70;;;1.60;;
819;SDS011;392;48.838;2.322;2024-01-15T13:42:32;1.93;;;1.70;;
819;SDS011;392;48.838;2.322;2024-01-15T13:45:01;1.50;;;1.40;;
819;SDS011;392;48.838;2.322;2024-01-15T13:47:34;1.53;;;1.43;;
819;SDS011;392;48.838;2.322;2024-01-15T13:50:02;1.23;;;1.23;;
819;SDS011;392;48.838;2.322;2024-01-15T13:52:33;1.23;;;1.13;;
819;SDS011;392;48.838;2.322;2024-01-15T13:55:01;2.60;;;1.23;;
819;SDS011;392;48.838;2.322;2024-01-15T13:57:28;1.77;;;1.33;;
819;SDS011;392;48.838;2.322;2024-01-15T13:59:58;1.00;;;0.90;;
819;SDS011;392;48.838;2.322;2024-01-15T14:02:26;1.73;;;1.43;;
819;SDS011;392;48.838;2.322;2024-01-15T14:04:54;1.50;;;1.40;;
819;SDS011;392;48.838;2.322;2024-01-15T14:07:21;1.90;;;1.80;;
819;SDS011;392;48.838;2.322;2024-01-15T14:09:48;2.40;;;1.87;;
819;SDS011;392;48.838;2.322;2024-01-15T14:12:16;1.90;;;1.80;;
819;SDS011;392;48.838;2.322;2024-01-15T14:14:43;1.60;;;1.50;;
819;SDS011;392;48.838;2.322;2024-01-15T14:17:10;2.17;;;2.03;;
819;SDS011;392;48.838;2.322;2024-01-15T14:19:41;1.53;;;1.43;;
819;SDS011;392;48.838;2.322;2024-01-15T14:22:08;2.50;;;1.90;;
819;SDS011;392;48.838;2.322;2024-01-15T14:24:36;2.33;;;2.00;;
819;SDS011;392;48.838;2.322;2024-01-15T14:27:03;2.03;;;1.63;;
819;SDS011;392;48.838;2.322;2024-01-15T14:29:35;1.93;;;1.60;;
819;SDS011;392;48.838;2.322;2024-01-15T14:32:03;1.50;;;1.40;;
819;SDS011;392;48.838;2.322;2024-01-15T14:34:31;1.93;;;1.47;;
819;SDS011;392;48.838;2.322;2024-01-15T14:37:00;1.40;;;1.30;;
819;SDS011;392;48.838;2.322;2024-01-15T14:39:27;2.10;;;2.00;;
819;SDS011;392;48.838;2.322;2024-01-15T14:41:54;1.60;;;1.50;;
819;SDS011;392;48.838;2.322;2024-01-15T14:44:22;1.70;;;1.60;;
819;SDS011;392;48.838;2.322;2024-01-15T14:46:49;2.00;;;1.87;;
819;SDS011;392;48.838;2.322;2024-01-15T14:49:18;1.73;;;1.63;;
819;SDS011;392;48.838;2.322;2024-01-15T14:51:45;1.80;;;1.60;;
819;SDS011;392;48.838;2.322;2024-01-15T14:54:15;1.70;;;1.60;;
819;SDS011;392;48.838;2.322;2024-01-15T14:56:45;1.97;;;1.17;;
819;SDS011;392;48.838;2.322;2024-01-15T14:59:13;1.00;;;1.00;;
819;SDS011;392;48.838;2.322;2024-01-15T15:01:40;1.10;;;0.97;;
819;SDS011;392;48.838;2.322;2024-01-15T15:04:08;0.90;;;0.90;;
819;SDS011;392;48.838;2.322;2024-01-15T15:06:35;0.80;;;0.80;;
819;SDS011;392;48.838;2.322;2024-01-15T15:09:03;1.53;;;1.43;;
819;SDS011;392;48.838;2.322;2024-01-15T15:11:36;1.07;;;0.97;;
819;SDS011;392;48.838;2.322;2024-01-15T15:14:03;1.00;;;1.00;;
819;SDS011;392;48.838;2.322;2024-01-15T15:16:31;1.00;;;1.00;;
819;SDS011;392;48.838;2.322;2024-01-15T15:18:58;1.10;;;1.10;;
819;SDS011;392;48.838;2.322;2024-01-15T15:21:28;1.87;;;1.77;;
819;SDS011;392;48.838;2.322;2024-01-15T15:23:55;1.10;;;1.00;;
819;SDS011;392;48.838;2.322;2024-01-15T15:26:23;1.43;;;1.20;;
819;SDS011;392;48.838;2.322;2024-01-15T15:28:52;1.37;;;1.17;;
819;SDS011;392;48.838;2.322;2024-01-15T15:31:21;0.90;;;0.90;;
819;SDS011;392;48.838;2.322;2024-01-15T15:33:49;2.10;;;1.40;;
819;SDS011;392;48.838;2.322;2024-01-15T15:36:16;1.40;;;1.23;;